createdAt,value
2023-05-08T00:01:31.240Z,14.78
2023-05-08T00:03:58.705Z,14.78
2023-05-08T00:06:27.722Z,14.75
2023-05-08T00:08:55.816Z,14.77
2023-05-08T00:11:22.918Z,14.75
2023-05-08T00:13:49.937Z,14.77
2023-05-08T00:16:17.101Z,14.77
2023-05-08T00:18:44.447Z,14.76
2023-05-08T00:21:11.516Z,14.74
2023-05-08T00:23:38.485Z,14.74
2023-05-08T00:26:05.696Z,14.73
2023-05-08T00:28:32.698Z,14.73
2023-05-08T00:31:02.064Z,14.73
2023-05-08T00:33:29.295Z,14.71
2023-05-08T00:36:05.136Z,14.71
2023-05-08T00:38:36.914Z,14.70
2023-05-08T00:41:04.393Z,14.70
2023-05-08T00:43:31.447Z,14.66
2023-05-08T00:46:02.182Z,14.68
2023-05-08T00:48:34.267Z,14.66
2023-05-08T00:51:06.451Z,14.66
2023-05-08T00:53:39.093Z,14.64
2023-05-08T00:56:13.863Z,14.64
2023-05-08T00:58:43.329Z,14.62
2023-05-08T01:01:11.392Z,14.63
2023-05-08T01:03:38.647Z,14.60
2023-05-08T01:06:06.840Z,14.60
2023-05-08T01:08:34.927Z,14.57
2023-05-08T01:11:19.188Z,14.58
2023-05-08T01:13:52.363Z,14.54
2023-05-08T01:16:35.985Z,14.45
2023-05-08T01:19:22.524Z,14.40
2023-05-08T01:22:00.904Z,14.33
2023-05-08T01:25:21.009Z,14.28
2023-05-08T01:28:21.857Z,14.20
2023-05-08T01:31:14.497Z,14.13
2023-05-08T01:34:09.055Z,14.08
2023-05-08T01:37:08.381Z,14.04
2023-05-08T01:40:07.789Z,14.01
2023-05-08T01:42:50.794Z,14.01
2023-05-08T01:45:26.870Z,14.00
2023-05-08T01:48:11.989Z,13.99
2023-05-08T01:50:52.802Z,13.98
2023-05-08T01:53:43.492Z,13.97
2023-05-08T01:56:17.146Z,13.95
2023-05-08T01:58:46.785Z,13.93
2023-05-08T02:01:18.887Z,13.92
2023-05-08T02:03:48.590Z,13.94
2023-05-08T02:06:20.068Z,13.95
2023-05-08T02:08:48.801Z,13.91
2023-05-08T02:11:20.822Z,13.85
2023-05-08T02:13:49.934Z,13.81
2023-05-08T02:16:19.289Z,13.81
2023-05-08T02:18:52.682Z,13.80
2023-05-08T02:21:22.481Z,13.76
2023-05-08T02:23:52.282Z,13.74
2023-05-08T02:26:22.343Z,13.73
2023-05-08T02:28:53.402Z,13.72
2023-05-08T02:31:22.084Z,13.71
2023-05-08T02:33:50.795Z,13.73
2023-05-08T02:36:22.510Z,13.72
2023-05-08T02:38:54.194Z,13.70
2023-05-08T02:41:26.052Z,13.69
2023-05-08T02:43:53.766Z,13.65
2023-05-08T02:46:58.807Z,13.64
2023-05-08T02:50:13.592Z,13.58
2023-05-08T02:53:03.263Z,13.54
2023-05-08T02:55:49.557Z,13.54
2023-05-08T02:58:30.544Z,13.55
2023-05-08T03:01:07.418Z,13.55
2023-05-08T03:03:46.159Z,13.53
2023-05-08T03:06:19.440Z,13.53
2023-05-08T03:08:49.049Z,13.51
2023-05-08T03:11:22.636Z,13.52
2023-05-08T03:13:58.845Z,13.51
2023-05-08T03:16:34.882Z,13.51
2023-05-08T03:19:10.657Z,13.49
2023-05-08T03:21:40.926Z,13.49
2023-05-08T03:24:10.789Z,13.49
2023-05-08T03:26:38.387Z,13.48
2023-05-08T03:29:06.776Z,13.50
2023-05-08T03:31:36.949Z,13.49
2023-05-08T03:34:05.115Z,13.49
2023-05-08T03:36:32.366Z,13.49
2023-05-08T03:39:00.279Z,13.49
2023-05-08T03:41:27.546Z,13.46
2023-05-08T03:43:56.323Z,13.46
2023-05-08T03:46:25.752Z,13.47
2023-05-08T03:48:54.744Z,13.45
2023-05-08T03:51:22.532Z,13.47
2023-05-08T03:53:50.071Z,13.46
2023-05-08T03:56:18.158Z,13.47
2023-05-08T03:59:06.813Z,13.46
2023-05-08T04:01:40.898Z,13.46
2023-05-08T04:04:32.484Z,13.44
2023-05-08T04:07:06.520Z,13.42
2023-05-08T04:10:09.497Z,13.40
2023-05-08T04:13:07.200Z,13.36
2023-05-08T04:16:14.017Z,13.34
2023-05-08T04:18:49.773Z,13.33
2023-05-08T04:21:25.386Z,13.36
2023-05-08T04:23:57.768Z,13.39
2023-05-08T04:26:26.770Z,13.40
2023-05-08T04:28:57.102Z,13.41
2023-05-08T04:31:25.940Z,13.42
2023-05-08T04:33:54.203Z,13.42
2023-05-08T04:36:21.568Z,13.43
2023-05-08T04:38:48.788Z,13.46
2023-05-08T04:41:16.106Z,13.46
2023-05-08T04:43:43.998Z,13.51
2023-05-08T04:46:12.120Z,13.56
2023-05-08T04:48:39.801Z,13.60
2023-05-08T04:51:07.042Z,13.64
2023-05-08T04:53:34.073Z,13.71
2023-05-08T04:56:01.934Z,13.75
2023-05-08T04:58:29.710Z,13.78
2023-05-08T05:01:01.666Z,13.80
2023-05-08T05:03:28.764Z,13.84
2023-05-08T05:06:00.319Z,13.88
2023-05-08T05:08:27.836Z,13.90
2023-05-08T05:10:56.449Z,13.94
2023-05-08T05:13:23.836Z,13.98
2023-05-08T05:15:54.243Z,14.04
2023-05-08T05:18:22.170Z,14.05
2023-05-08T05:20:50.694Z,14.06
2023-05-08T05:23:17.940Z,14.08
2023-05-08T05:25:45.598Z,14.08
2023-05-08T05:28:13.659Z,14.12
2023-05-08T05:30:40.798Z,14.14
2023-05-08T05:33:08.188Z,14.20
2023-05-08T05:35:35.565Z,14.25
2023-05-08T05:38:02.624Z,14.32
2023-05-08T05:40:29.792Z,14.40
2023-05-08T05:42:56.956Z,14.46
2023-05-08T05:45:23.950Z,14.49
2023-05-08T05:47:53.957Z,14.57
2023-05-08T05:50:23.002Z,14.66
2023-05-08T05:52:50.796Z,14.70
2023-05-08T05:55:17.943Z,14.77
2023-05-08T05:57:47.407Z,14.87
2023-05-08T06:00:16.469Z,14.95
2023-05-08T06:02:48.965Z,15.07
2023-05-08T06:05:19.175Z,15.22
2023-05-08T06:07:46.437Z,15.31
2023-05-08T06:10:13.490Z,15.39
2023-05-08T06:12:40.766Z,15.43
2023-05-08T06:15:09.844Z,15.46
2023-05-08T06:17:37.181Z,15.50
2023-05-08T06:20:05.067Z,15.60
2023-05-08T06:22:32.143Z,15.68
2023-05-08T06:24:59.891Z,15.77
2023-05-08T06:27:26.881Z,15.90
2023-05-08T06:29:53.943Z,15.96
2023-05-08T06:32:22.078Z,16.03
2023-05-08T06:34:49.402Z,16.12
2023-05-08T06:37:16.410Z,16.20
2023-05-08T06:39:43.606Z,16.25
2023-05-08T06:42:10.951Z,16.26
2023-05-08T06:44:40.727Z,16.28
2023-05-08T06:47:08.445Z,16.28
2023-05-08T06:49:38.584Z,16.34
2023-05-08T06:52:05.626Z,16.44
2023-05-08T06:54:32.682Z,16.55
2023-05-08T06:56:59.729Z,16.65
2023-05-08T06:59:26.909Z,16.69
2023-05-08T07:01:53.908Z,16.75
2023-05-08T07:04:21.074Z,16.95
2023-05-08T07:06:48.085Z,17.19
2023-05-08T07:09:16.218Z,17.41
2023-05-08T07:11:43.702Z,17.63
2023-05-08T07:14:10.691Z,17.87
2023-05-08T07:16:37.933Z,18.06
2023-05-08T07:19:05.413Z,18.22
2023-05-08T07:21:32.424Z,18.35
2023-05-08T07:23:59.567Z,18.46
2023-05-08T07:26:26.577Z,18.60
2023-05-08T07:28:54.293Z,18.68
2023-05-08T07:31:22.307Z,18.75
2023-05-08T07:33:49.472Z,18.75
2023-05-08T07:36:16.799Z,18.71
2023-05-08T07:38:43.767Z,18.70
2023-05-08T07:41:10.797Z,18.72
2023-05-08T07:43:38.057Z,18.76
2023-05-08T07:46:05.982Z,18.84
2023-05-08T07:48:32.986Z,18.91
2023-05-08T07:50:59.961Z,19.03
2023-05-08T07:53:27.478Z,19.11
2023-05-08T07:55:54.531Z,19.18
2023-05-08T07:58:23.700Z,19.29
2023-05-08T08:00:51.289Z,19.36
2023-05-08T08:03:18.381Z,19.34
2023-05-08T08:05:45.558Z,19.36
2023-05-08T08:08:12.591Z,19.36
2023-05-08T08:10:39.736Z,19.40
2023-05-08T08:13:06.814Z,19.39
2023-05-08T08:15:33.862Z,19.34
2023-05-08T08:18:01.605Z,19.26
2023-05-08T08:20:28.727Z,19.07
2023-05-08T08:22:55.669Z,18.92
2023-05-08T08:25:22.776Z,18.86
2023-05-08T08:27:49.716Z,18.74
2023-05-08T08:30:18.579Z,18.62
2023-05-08T08:32:46.628Z,18.55
2023-05-08T08:35:14.463Z,18.46
2023-05-08T08:37:42.062Z,18.45
2023-05-08T08:40:09.824Z,18.54
2023-05-08T08:42:37.075Z,18.63
2023-05-08T08:45:04.648Z,18.71
2023-05-08T08:47:37.853Z,18.77
2023-05-08T08:50:07.969Z,18.80
2023-05-08T08:53:07.495Z,18.87
2023-05-08T08:55:40.935Z,18.90
2023-05-08T08:58:21.193Z,18.96
2023-05-08T09:00:50.159Z,19.06
2023-05-08T09:03:17.929Z,19.17
2023-05-08T09:05:45.921Z,19.28
2023-05-08T09:08:13.142Z,19.36
2023-05-08T09:10:40.957Z,19.42
2023-05-08T09:13:08.082Z,19.63
2023-05-08T09:15:35.444Z,19.87
2023-05-08T09:18:02.816Z,20.15
2023-05-08T09:20:30.726Z,20.42
2023-05-08T09:23:02.210Z,20.60
2023-05-08T09:25:47.369Z,20.72
2023-05-08T09:28:23.785Z,20.90
2023-05-08T09:30:59.117Z,21.01
2023-05-08T09:33:28.778Z,21.08
2023-05-08T09:35:57.612Z,21.05
2023-05-08T09:38:38.907Z,21.10
2023-05-08T09:41:16.834Z,21.12
2023-05-08T09:43:59.924Z,21.17
2023-05-08T09:46:27.380Z,21.42
2023-05-08T09:49:01.341Z,21.47
2023-05-08T09:51:30.390Z,21.31
2023-05-08T09:53:59.655Z,21.18
2023-05-08T09:56:39.435Z,21.23
2023-05-08T09:59:29.234Z,21.43
2023-05-08T10:01:57.473Z,21.71
2023-05-08T10:04:36.495Z,21.93
2023-05-08T10:07:04.670Z,22.24
2023-05-08T10:09:42.699Z,22.56
2023-05-08T10:12:17.015Z,22.77
2023-05-08T10:14:46.490Z,22.89
2023-05-08T10:17:25.096Z,23.09
2023-05-08T10:20:02.716Z,23.20
2023-05-08T10:22:34.370Z,23.33
2023-05-08T10:25:03.433Z,23.44
2023-05-08T10:28:02.592Z,23.40
2023-05-08T10:30:31.957Z,23.10
2023-05-08T10:33:09.313Z,22.92
2023-05-08T10:35:40.516Z,22.77
2023-05-08T10:38:09.541Z,22.65
2023-05-08T10:40:38.218Z,22.51
2023-05-08T10:43:07.573Z,22.28
2023-05-08T10:45:36.195Z,22.01
2023-05-08T10:48:28.097Z,21.78
2023-05-08T10:51:23.987Z,21.52
2023-05-08T10:54:05.258Z,21.31
2023-05-08T10:56:32.442Z,21.21
2023-05-08T10:58:59.778Z,21.17
2023-05-08T11:01:27.229Z,21.14
2023-05-08T11:03:56.121Z,21.07
2023-05-08T11:06:49.131Z,20.97
2023-05-08T11:09:23.538Z,20.84
2023-05-08T11:12:16.177Z,20.73
2023-05-08T11:14:54.832Z,20.51
2023-05-08T11:17:26.434Z,20.27
2023-05-08T11:20:05.187Z,20.02
2023-05-08T11:22:34.039Z,19.89
2023-05-08T11:25:11.030Z,19.85
2023-05-08T11:27:47.142Z,19.75
2023-05-08T11:30:23.635Z,19.67
2023-05-08T11:33:03.166Z,19.63
2023-05-08T11:35:50.542Z,19.63
2023-05-08T11:38:28.593Z,19.71
2023-05-08T11:41:21.627Z,19.86
2023-05-08T11:44:09.689Z,20.00
2023-05-08T11:46:56.055Z,20.15
2023-05-08T11:49:28.996Z,20.26
2023-05-08T11:51:59.858Z,20.33
2023-05-08T11:54:30.825Z,20.40
2023-05-08T11:56:59.528Z,20.53
2023-05-08T11:59:26.926Z,20.64
2023-05-08T12:02:06.893Z,20.83
2023-05-08T12:04:45.560Z,21.32
2023-05-08T12:07:13.043Z,21.57
2023-05-08T12:09:40.172Z,21.80
2023-05-08T12:12:07.347Z,21.91
2023-05-08T12:14:35.022Z,22.02
2023-05-08T12:17:03.073Z,22.21
2023-05-08T12:19:30.069Z,22.39
2023-05-08T12:21:58.000Z,22.58
2023-05-08T12:24:26.270Z,22.85
2023-05-08T12:26:57.846Z,23.02
2023-05-08T12:29:28.057Z,23.20
2023-05-08T12:31:55.864Z,23.26
2023-05-08T12:34:23.894Z,23.31
2023-05-08T12:37:05.158Z,23.39
2023-05-08T12:39:37.584Z,23.49
2023-05-08T12:42:04.934Z,23.50
2023-05-08T12:44:32.269Z,23.48
2023-05-08T12:46:59.433Z,23.54
2023-05-08T12:49:29.978Z,23.69
2023-05-08T12:52:12.880Z,23.77
2023-05-08T12:54:48.312Z,23.86
2023-05-08T12:57:18.481Z,24.00
2023-05-08T12:59:48.032Z,24.10
2023-05-08T13:02:23.951Z,24.12
2023-05-08T13:04:59.367Z,24.01
2023-05-08T13:07:33.220Z,23.96
2023-05-08T13:10:04.528Z,23.91
2023-05-08T13:12:32.101Z,23.92
2023-05-08T13:14:59.299Z,23.87
2023-05-08T13:17:26.308Z,23.88
2023-05-08T13:19:53.360Z,23.87
2023-05-08T13:22:23.070Z,23.85
2023-05-08T13:24:50.174Z,23.88
2023-05-08T13:27:17.314Z,24.02
2023-05-08T13:29:44.373Z,24.04
2023-05-08T13:32:11.490Z,24.04
2023-05-08T13:34:44.263Z,24.21
2023-05-08T13:37:17.099Z,24.27
2023-05-08T13:39:44.138Z,24.43
2023-05-08T13:42:11.165Z,24.44
2023-05-08T13:44:38.068Z,24.58
2023-05-08T13:47:05.104Z,24.66
2023-05-08T13:49:32.131Z,24.78
2023-05-08T13:51:59.100Z,24.83
2023-05-08T13:54:26.078Z,24.90
2023-05-08T13:56:54.090Z,24.85
2023-05-08T13:59:21.410Z,24.85
2023-05-08T14:01:48.662Z,24.76
2023-05-08T14:04:15.779Z,24.74
2023-05-08T14:06:42.852Z,24.72
2023-05-08T14:09:09.905Z,24.68
2023-05-08T14:11:37.055Z,24.56
2023-05-08T14:14:04.945Z,24.35
2023-05-08T14:16:33.151Z,24.19
2023-05-08T14:19:00.441Z,24.07
2023-05-08T14:21:27.615Z,23.91
2023-05-08T14:23:55.004Z,23.76
2023-05-08T14:26:22.300Z,23.64
2023-05-08T14:28:49.467Z,23.57
2023-05-08T14:31:16.598Z,23.59
2023-05-08T14:33:43.681Z,23.60
2023-05-08T14:36:10.714Z,23.48
2023-05-08T14:38:37.808Z,23.38
2023-05-08T14:41:05.131Z,23.19
2023-05-08T14:43:32.422Z,23.08
2023-05-08T14:45:59.698Z,23.02
2023-05-08T14:48:27.561Z,22.97
2023-05-08T14:50:54.555Z,22.91
2023-05-08T14:53:21.890Z,22.82
2023-05-08T14:55:49.355Z,22.86
2023-05-08T14:58:16.795Z,22.84
2023-05-08T15:00:43.932Z,22.85
2023-05-08T15:03:11.086Z,22.85
2023-05-08T15:05:38.942Z,22.91
2023-05-08T15:08:06.232Z,23.04
2023-05-08T15:10:33.305Z,23.15
2023-05-08T15:13:00.641Z,23.19
2023-05-08T15:15:28.059Z,23.17
2023-05-08T15:17:55.307Z,23.13
2023-05-08T15:20:23.105Z,23.05
2023-05-08T15:22:50.134Z,22.95
2023-05-08T15:25:17.518Z,22.86
2023-05-08T15:27:44.683Z,22.77
2023-05-08T15:30:12.725Z,22.66
2023-05-08T15:32:40.306Z,22.53
2023-05-08T15:35:08.000Z,22.33
2023-05-08T15:37:37.044Z,22.17
2023-05-08T15:40:04.657Z,22.02
2023-05-08T15:42:31.908Z,21.93
2023-05-08T15:44:59.187Z,21.72
2023-05-08T15:47:27.467Z,21.58
2023-05-08T15:49:55.445Z,21.41
2023-05-08T15:52:22.847Z,21.27
2023-05-08T15:54:50.433Z,21.20
2023-05-08T15:57:17.655Z,21.13
2023-05-08T15:59:44.825Z,21.06
2023-05-08T16:02:11.877Z,20.97
2023-05-08T16:04:39.845Z,20.83
2023-05-08T16:07:11.132Z,20.66
2023-05-08T16:09:38.261Z,20.57
2023-05-08T16:12:05.875Z,20.56
2023-05-08T16:14:33.004Z,20.54
2023-05-08T16:17:00.050Z,20.57
2023-05-08T16:19:27.148Z,20.63
2023-05-08T16:21:54.201Z,20.69
2023-05-08T16:24:21.208Z,20.71
2023-05-08T16:26:48.330Z,20.76
2023-05-08T16:29:15.454Z,20.77
2023-05-08T16:31:42.549Z,20.73
2023-05-08T16:34:09.560Z,20.68
2023-05-08T16:36:36.843Z,20.63
2023-05-08T16:39:04.049Z,20.62
2023-05-08T16:41:31.076Z,20.56
2023-05-08T16:43:58.246Z,20.55
2023-05-08T16:46:30.088Z,20.56
2023-05-08T16:48:57.686Z,20.56
2023-05-08T16:51:24.844Z,20.54
2023-05-08T16:53:51.991Z,20.51
2023-05-08T16:56:19.090Z,20.49
2023-05-08T16:58:46.220Z,20.51
2023-05-08T17:01:14.227Z,20.51
2023-05-08T17:03:41.397Z,20.49
2023-05-08T17:06:09.055Z,20.46
2023-05-08T17:08:36.263Z,20.41
2023-05-08T17:11:03.395Z,20.36
2023-05-08T17:13:34.638Z,20.30
2023-05-08T17:16:09.518Z,20.26
2023-05-08T17:18:36.661Z,20.21
2023-05-08T17:21:15.020Z,20.17
2023-05-08T17:23:42.160Z,20.13
2023-05-08T17:26:09.221Z,20.10
2023-05-08T17:28:37.172Z,20.04
2023-05-08T17:31:06.113Z,19.96
2023-05-08T17:33:33.587Z,19.85
2023-05-08T17:36:02.003Z,19.67
2023-05-08T17:38:29.127Z,19.40
2023-05-08T17:40:56.630Z,19.13
2023-05-08T17:43:24.349Z,18.86
2023-05-08T17:45:51.450Z,18.62
2023-05-08T17:48:18.455Z,18.39
2023-05-08T17:50:46.864Z,18.18
2023-05-08T17:53:13.984Z,17.97
2023-05-08T17:55:41.106Z,17.80
2023-05-08T17:58:08.121Z,17.66
2023-05-08T18:00:35.166Z,17.56
2023-05-08T18:03:02.360Z,17.49
2023-05-08T18:05:30.462Z,17.43
2023-05-08T18:07:57.569Z,17.34
2023-05-08T18:10:24.644Z,17.28
2023-05-08T18:12:51.734Z,17.25
2023-05-08T18:15:18.722Z,17.21
2023-05-08T18:17:45.792Z,17.16
2023-05-08T18:20:13.089Z,17.11
2023-05-08T18:22:40.400Z,17.07
2023-05-08T18:25:08.057Z,17.08
2023-05-08T18:27:35.081Z,17.07
2023-05-08T18:30:02.269Z,17.07
2023-05-08T18:32:29.386Z,17.05
2023-05-08T18:34:57.222Z,17.05
2023-05-08T18:37:24.707Z,17.03
2023-05-08T18:39:51.691Z,17.00
2023-05-08T18:42:18.685Z,16.99
2023-05-08T18:44:46.259Z,16.99
2023-05-08T18:47:13.306Z,16.99
2023-05-08T18:49:40.428Z,16.98
2023-05-08T18:52:07.413Z,17.02
2023-05-08T18:54:34.402Z,17.05
2023-05-08T18:57:01.407Z,17.06
2023-05-08T18:59:28.431Z,17.06
2023-05-08T19:01:55.496Z,17.03
2023-05-08T19:04:22.488Z,17.00
2023-05-08T19:06:49.415Z,16.97
2023-05-08T19:09:16.544Z,16.95
2023-05-08T19:11:43.550Z,16.94
2023-05-08T19:14:10.565Z,16.95
2023-05-08T19:16:37.631Z,16.96
2023-05-08T19:19:04.838Z,16.95
2023-05-08T19:21:31.979Z,16.90
2023-05-08T19:23:59.097Z,16.86
2023-05-08T19:26:26.514Z,16.84
2023-05-08T19:28:53.725Z,16.82
2023-05-08T19:31:20.797Z,16.80
2023-05-08T19:33:48.925Z,16.74
2023-05-08T19:36:16.068Z,16.71
2023-05-08T19:38:43.159Z,16.66
2023-05-08T19:41:11.911Z,16.65
2023-05-08T19:43:38.884Z,16.61
2023-05-08T19:46:05.917Z,16.58
2023-05-08T19:48:32.857Z,16.54
2023-05-08T19:51:09.668Z,16.52
2023-05-08T19:53:36.651Z,16.48
2023-05-08T19:56:03.666Z,16.42
2023-05-08T19:58:31.679Z,16.39
2023-05-08T20:00:58.725Z,16.37
2023-05-08T20:03:25.970Z,16.32
2023-05-08T20:05:53.437Z,16.28
2023-05-08T20:08:20.520Z,16.25
2023-05-08T20:10:50.108Z,16.23
2023-05-08T20:13:17.862Z,16.23
2023-05-08T20:15:45.089Z,16.19
2023-05-08T20:18:12.308Z,16.15
2023-05-08T20:20:39.353Z,16.09
2023-05-08T20:23:06.331Z,16.08
2023-05-08T20:25:33.402Z,16.07
2023-05-08T20:28:00.515Z,16.03
2023-05-08T20:30:27.676Z,16.02
2023-05-08T20:32:54.803Z,16.04
2023-05-08T20:35:21.894Z,16.07
2023-05-08T20:37:49.334Z,16.09
2023-05-08T20:40:16.866Z,16.12
2023-05-08T20:42:43.995Z,16.11
2023-05-08T20:45:11.480Z,16.12
2023-05-08T20:47:38.644Z,16.13
2023-05-08T20:50:07.290Z,16.16
2023-05-08T20:52:36.067Z,16.18
2023-05-08T20:55:05.549Z,16.19
2023-05-08T20:57:32.575Z,16.21
2023-05-08T20:59:59.599Z,16.21
2023-05-08T21:02:26.659Z,16.17
2023-05-08T21:04:53.857Z,16.14
2023-05-08T21:07:20.991Z,16.13
2023-05-08T21:09:47.980Z,16.09
2023-05-08T21:12:14.968Z,16.06
2023-05-08T21:14:43.977Z,16.05
2023-05-08T21:17:11.274Z,16.04
2023-05-08T21:19:38.328Z,16.01
2023-05-08T21:22:05.437Z,16.00
2023-05-08T21:24:32.429Z,15.97
2023-05-08T21:27:01.994Z,15.95
2023-05-08T21:29:29.302Z,15.92
2023-05-08T21:31:56.507Z,15.84
2023-05-08T21:34:23.776Z,15.78
2023-05-08T21:36:50.922Z,15.74
2023-05-08T21:39:18.091Z,15.68
2023-05-08T21:41:46.206Z,15.65
2023-05-08T21:44:13.352Z,15.63
2023-05-08T21:46:40.351Z,15.60
2023-05-08T21:49:07.581Z,15.56
2023-05-08T21:51:35.226Z,15.51
2023-05-08T21:54:02.286Z,15.47
2023-05-08T21:56:29.272Z,15.45
2023-05-08T21:58:56.319Z,15.42
2023-05-08T22:01:23.288Z,15.41
2023-05-08T22:03:50.388Z,15.40
2023-05-08T22:06:17.452Z,15.40
2023-05-08T22:08:44.529Z,15.38
2023-05-08T22:11:11.625Z,15.36
2023-05-08T22:13:38.723Z,15.37
2023-05-08T22:16:06.556Z,15.38
2023-05-08T22:18:33.653Z,15.38
2023-05-08T22:21:00.684Z,15.37
2023-05-08T22:23:27.831Z,15.41
2023-05-08T22:25:54.842Z,15.40
2023-05-08T22:28:21.865Z,15.41
2023-05-08T22:30:48.851Z,15.40
2023-05-08T22:33:15.941Z,15.37
2023-05-08T22:35:43.009Z,15.40
2023-05-08T22:38:10.000Z,15.39
2023-05-08T22:40:37.062Z,15.37
2023-05-08T22:43:04.117Z,15.40
2023-05-08T22:45:32.378Z,15.41
2023-05-08T22:47:59.531Z,15.41
2023-05-08T22:50:26.621Z,15.42
2023-05-08T22:52:53.677Z,15.41
2023-05-08T22:55:20.827Z,15.41
2023-05-08T22:57:50.070Z,15.38
2023-05-08T23:00:17.366Z,15.39
2023-05-08T23:02:44.470Z,15.38
2023-05-08T23:05:12.956Z,15.40
2023-05-08T23:07:41.266Z,15.42
2023-05-08T23:10:08.810Z,15.41
2023-05-08T23:12:37.020Z,15.38
2023-05-08T23:15:04.666Z,15.37
2023-05-08T23:17:31.762Z,15.37
2023-05-08T23:19:58.738Z,15.38
2023-05-08T23:22:25.698Z,15.36
2023-05-08T23:24:52.839Z,15.33
2023-05-08T23:27:19.872Z,15.31
2023-05-08T23:29:46.990Z,15.29
2023-05-08T23:32:14.254Z,15.30
2023-05-08T23:34:44.304Z,15.30
2023-05-08T23:37:11.345Z,15.26
2023-05-08T23:39:41.222Z,15.22
2023-05-08T23:42:08.766Z,15.21
2023-05-08T23:44:35.915Z,15.22
2023-05-08T23:47:03.027Z,15.23
2023-05-08T23:49:30.060Z,15.27
2023-05-08T23:51:57.160Z,15.29
2023-05-08T23:54:24.201Z,15.30
2023-05-08T23:56:51.256Z,15.31
2023-05-08T23:59:18.293Z,15.32
